This is the latest recevied weather packets stored in our database for station/object F4WDE-10. If no packets are shown the sender has not sent any weather packets the latest 10 day(s).
| Time | Temp. | Humidity | Pressure | Rain* | Wind** | Luminosity | Snow |
|---|---|---|---|---|---|---|---|
| 1777823584 | 20° C | 59% | 963 hPa | - | - | - | - |
| 1777822683 | 20.56° C | 55% | 963 hPa | - | - | - | - |
| 1777821782 | 21.11° C | 52% | 963 hPa | - | - | - | - |
| 1777820881 | 22.22° C | 51% | 963 hPa | - | - | - | - |
| 1777819980 | 25.56° C | 44% | 963 hPa | - | - | - | - |
| 1777819079 | 25.56° C | 44% | 963 hPa | - | - | - | - |
| 1777818178 | 25.56° C | 43% | 964 hPa | - | - | - | - |
| 1777817276 | 26.11° C | 41% | 964 hPa | - | - | - | - |
| 1777816375 | 25.56° C | 42% | 964 hPa | - | - | - | - |
| 1777815474 | 25.56° C | 41% | 964 hPa | - | - | - | - |
| 1777814573 | 26.67° C | 39% | 964 hPa | - | - | - | - |
| 1777813672 | 25° C | 40% | 964 hPa | - | - | - | - |
| 1777812771 | 23.89° C | 45% | 965 hPa | - | - | - | - |
| 1777811870 | 23.33° C | 48% | 965 hPa | - | - | - | - |
| 1777810969 | 23.33° C | 49% | 965 hPa | - | - | - | - |
| 1777810067 | 21.11° C | 54% | 965 hPa | - | - | - | - |
| 1777809165 | 21.67° C | 52% | 965 hPa | - | - | - | - |
| 1777808264 | 23.89° C | 45% | 965 hPa | - | - | - | - |
| 1777807363 | 25° C | 42% | 965 hPa | - | - | - | - |
| 1777806462 | 24.44° C | 41% | 965 hPa | - | - | - | - |
| 1777805561 | 24.44° C | 40% | 965 hPa | - | - | - | - |
| 1777804660 | 23.89° C | 39% | 965 hPa | - | - | - | - |
| 1777803759 | 24.44° C | 38% | 965 hPa | - | - | - | - |
| 1777802858 | 23.89° C | 41% | 965 hPa | - | - | - | - |
| 1777801956 | 23.33° C | 40% | 966 hPa | - | - | - | - |
* Rain since midnight (hover to see other rain measurements)
** Current wind speed in m/s (hover to see current wind gust speed)